createdAt,value
2023-04-10T00:00:18.515Z,22.70
2023-04-10T00:02:44.570Z,23.40
2023-04-10T00:05:10.824Z,22.00
2023-04-10T00:07:37.059Z,24.35
2023-04-10T00:10:03.219Z,24.17
2023-04-10T00:12:29.259Z,23.55
2023-04-10T00:14:55.350Z,23.05
2023-04-10T00:17:21.316Z,22.42
2023-04-10T00:19:47.293Z,20.48
2023-04-10T00:22:13.418Z,22.77
2023-04-10T00:24:40.654Z,22.00
2023-04-10T00:27:06.568Z,20.98
2023-04-10T00:29:32.548Z,20.88
2023-04-10T00:31:58.558Z,21.08
2023-04-10T00:34:25.141Z,19.90
2023-04-10T00:36:51.170Z,20.67
2023-04-10T00:39:29.771Z,19.27
2023-04-10T00:41:57.089Z,19.33
2023-04-10T00:44:23.004Z,19.08
2023-04-10T00:46:49.355Z,18.25
2023-04-10T00:49:17.740Z,18.95
2023-04-10T00:51:43.920Z,18.83
2023-04-10T00:54:10.684Z,19.00
2023-04-10T00:56:37.094Z,17.30
2023-04-10T00:59:05.141Z,17.30
2023-04-10T01:01:32.515Z,17.02
2023-04-10T01:03:59.703Z,16.75
2023-04-10T01:06:50.196Z,17.75
2023-04-10T01:09:22.008Z,18.83
2023-04-10T01:11:55.682Z,17.27
2023-04-10T01:14:32.644Z,16.38
2023-04-10T01:17:12.460Z,16.90
2023-04-10T01:20:01.777Z,17.13
2023-04-10T01:23:12.281Z,16.63
2023-04-10T01:25:58.367Z,16.40
2023-04-10T01:31:09.763Z,16.27
2023-04-10T01:33:45.871Z,15.95
2023-04-10T01:36:17.164Z,16.80
2023-04-10T01:38:44.621Z,15.52
2023-04-10T01:41:12.146Z,16.42
2023-04-10T01:43:40.990Z,16.00
2023-04-10T01:46:07.256Z,14.90
2023-04-10T01:48:33.785Z,14.80
2023-04-10T01:51:06.415Z,14.63
2023-04-10T01:53:33.617Z,14.25
2023-04-10T01:56:00.043Z,13.75
2023-04-10T01:58:25.999Z,13.52
2023-04-10T02:00:51.902Z,13.15
2023-04-10T02:03:18.298Z,13.95
2023-04-10T02:06:20.232Z,13.57
2023-04-10T02:08:54.964Z,12.85
2023-04-10T02:11:27.951Z,13.73
2023-04-10T02:13:59.355Z,13.27
2023-04-10T02:16:27.188Z,14.38
2023-04-10T02:18:54.033Z,13.95
2023-04-10T02:21:20.149Z,14.10
2023-04-10T02:23:46.471Z,14.20
2023-04-10T02:26:12.404Z,13.10
2023-04-10T02:28:39.480Z,13.45
2023-04-10T02:31:06.203Z,13.82
2023-04-10T02:33:32.165Z,12.75
2023-04-10T02:36:00.177Z,13.77
2023-04-10T02:38:26.916Z,14.18
2023-04-10T02:40:52.864Z,13.65
2023-04-10T02:43:18.783Z,12.77
2023-04-10T02:45:44.761Z,12.45
2023-04-10T02:48:10.690Z,13.75
2023-04-10T02:50:36.715Z,12.82
2023-04-10T02:53:02.606Z,11.55
2023-04-10T02:55:28.556Z,12.00
2023-04-10T02:57:55.061Z,12.18
2023-04-10T03:00:22.397Z,11.75
2023-04-10T03:02:48.497Z,12.60
2023-04-10T03:05:14.699Z,11.85
2023-04-10T03:07:40.787Z,12.00
2023-04-10T03:10:07.277Z,11.63
2023-04-10T03:12:33.310Z,11.00
2023-04-10T03:14:59.277Z,12.02
2023-04-10T03:17:25.275Z,11.90
2023-04-10T03:19:51.152Z,12.27
2023-04-10T03:22:17.096Z,12.05
2023-04-10T03:24:43.021Z,11.63
2023-04-10T03:27:08.998Z,11.85
2023-04-10T03:29:35.137Z,11.13
2023-04-10T03:32:01.152Z,11.13
2023-04-10T03:34:27.188Z,11.15
2023-04-10T03:36:53.041Z,10.80
2023-04-10T03:39:19.024Z,11.07
2023-04-10T03:41:44.881Z,11.30
2023-04-10T03:44:10.730Z,11.13
2023-04-10T03:46:36.714Z,11.00
2023-04-10T03:49:02.654Z,10.50
2023-04-10T03:51:28.617Z,10.95
2023-04-10T03:53:55.177Z,11.35
2023-04-10T03:56:21.943Z,10.95
2023-04-10T03:58:47.847Z,10.82
2023-04-10T04:01:13.856Z,11.05
2023-04-10T04:03:39.908Z,10.55
2023-04-10T04:06:06.408Z,9.90
2023-04-10T04:08:32.300Z,11.07
2023-04-10T04:10:58.423Z,9.38
2023-04-10T04:13:24.405Z,9.82
2023-04-10T04:15:50.405Z,10.55
2023-04-10T04:18:16.398Z,10.18
2023-04-10T04:20:42.319Z,9.48
2023-04-10T04:23:08.195Z,10.05
2023-04-10T04:25:34.144Z,10.43
2023-04-10T04:28:00.745Z,9.73
2023-04-10T04:30:26.598Z,9.80
2023-04-10T04:32:52.600Z,9.98
2023-04-10T04:35:18.640Z,9.57
2023-04-10T04:37:45.366Z,9.57
2023-04-10T04:40:11.449Z,9.90
2023-04-10T04:42:37.407Z,10.60
2023-04-10T04:45:03.726Z,9.35
2023-04-10T04:47:29.937Z,10.00
2023-04-10T04:49:56.203Z,9.75
2023-04-10T04:52:23.034Z,9.13
2023-04-10T04:54:48.919Z,8.65
2023-04-10T04:57:14.863Z,9.60
2023-04-10T04:59:40.735Z,9.48
2023-04-10T05:02:06.871Z,8.80
2023-04-10T05:04:32.979Z,8.55
2023-04-10T05:06:58.957Z,8.73
2023-04-10T05:09:24.832Z,8.75
2023-04-10T05:11:50.962Z,9.10
2023-04-10T05:14:16.862Z,9.52
2023-04-10T05:16:42.852Z,8.57
2023-04-10T05:19:08.745Z,8.57
2023-04-10T05:21:36.836Z,9.43
2023-04-10T05:24:03.105Z,8.20
2023-04-10T05:26:29.146Z,8.77
2023-04-10T05:28:55.221Z,8.63
2023-04-10T05:31:21.704Z,8.82
2023-04-10T05:33:47.577Z,8.98
2023-04-10T05:36:13.926Z,8.65
2023-04-10T05:38:39.918Z,8.45
2023-04-10T05:41:06.040Z,8.63
2023-04-10T05:43:32.068Z,8.57
2023-04-10T05:45:58.013Z,8.55
2023-04-10T05:48:25.493Z,8.02
2023-04-10T05:50:52.162Z,8.70
2023-04-10T05:53:19.633Z,7.90
2023-04-10T05:55:50.626Z,8.80
2023-04-10T05:58:16.616Z,8.57
2023-04-10T06:00:42.601Z,7.88
2023-04-10T06:03:09.113Z,8.02
2023-04-10T06:05:35.215Z,8.27
2023-04-10T06:08:01.400Z,8.05
2023-04-10T06:10:30.448Z,7.97
2023-04-10T06:12:56.411Z,8.35
2023-04-10T06:15:22.316Z,7.57
2023-04-10T06:17:48.361Z,7.45
2023-04-10T06:20:14.425Z,7.32
2023-04-10T06:22:40.413Z,7.07
2023-04-10T06:25:06.612Z,7.07
2023-04-10T06:27:35.015Z,7.45
2023-04-10T06:30:02.437Z,7.25
2023-04-10T06:32:30.845Z,7.45
2023-04-10T06:34:57.260Z,7.18
2023-04-10T06:37:28.972Z,7.45
2023-04-10T06:40:13.303Z,7.40
2023-04-10T06:42:40.456Z,6.38
2023-04-10T06:45:07.180Z,6.40
2023-04-10T06:47:33.193Z,6.28
2023-04-10T06:50:00.949Z,6.20
2023-04-10T06:52:27.893Z,5.30
2023-04-10T06:54:53.871Z,5.43
2023-04-10T06:57:19.875Z,5.53
2023-04-10T06:59:45.904Z,5.75
2023-04-10T07:02:11.922Z,5.72
2023-04-10T07:04:37.904Z,4.72
2023-04-10T07:07:04.721Z,5.68
2023-04-10T07:09:31.054Z,5.57
2023-04-10T07:11:56.999Z,4.95
2023-04-10T07:14:23.003Z,5.47
2023-04-10T07:16:49.078Z,6.57
2023-04-10T07:19:15.334Z,4.97
2023-04-10T07:21:41.298Z,5.43
2023-04-10T07:24:07.477Z,5.25
2023-04-10T07:26:33.501Z,5.60
2023-04-10T07:28:59.424Z,5.43
2023-04-10T07:31:25.613Z,5.85
2023-04-10T07:33:51.652Z,5.72
2023-04-10T07:36:17.841Z,5.40
2023-04-10T07:38:43.772Z,5.50
2023-04-10T07:41:11.449Z,5.60
2023-04-10T07:43:37.385Z,5.47
2023-04-10T07:46:03.500Z,5.32
2023-04-10T07:48:29.749Z,5.45
2023-04-10T07:50:55.739Z,5.30
2023-04-10T07:53:21.686Z,4.88
2023-04-10T07:55:49.088Z,5.15
2023-04-10T07:58:15.835Z,4.45
2023-04-10T08:00:41.865Z,5.75
2023-04-10T08:03:07.943Z,4.70
2023-04-10T08:05:34.042Z,4.80
2023-04-10T08:08:00.063Z,4.90
2023-04-10T08:10:26.114Z,4.63
2023-04-10T08:12:52.094Z,4.65
2023-04-10T08:15:18.013Z,4.53
2023-04-10T08:17:44.156Z,4.75
2023-04-10T08:20:11.423Z,4.93
2023-04-10T08:22:37.652Z,4.35
2023-04-10T08:25:04.913Z,4.65
2023-04-10T08:27:31.041Z,5.28
2023-04-10T08:29:56.999Z,5.40
2023-04-10T08:32:25.791Z,4.97
2023-04-10T08:34:51.769Z,5.20
2023-04-10T08:37:19.188Z,4.57
2023-04-10T08:39:45.222Z,4.43
2023-04-10T08:42:11.168Z,4.70
2023-04-10T08:44:37.430Z,4.45
2023-04-10T08:47:05.268Z,4.00
2023-04-10T08:49:38.584Z,4.50
2023-04-10T08:52:07.775Z,3.67
2023-04-10T08:54:38.370Z,3.95
2023-04-10T08:57:08.056Z,4.22
2023-04-10T08:59:36.038Z,4.10
2023-04-10T09:02:02.399Z,4.63
2023-04-10T09:04:28.773Z,4.45
2023-04-10T09:06:54.825Z,3.60
2023-04-10T09:09:20.940Z,3.90
2023-04-10T09:11:55.949Z,4.05
2023-04-10T09:14:26.739Z,4.43
2023-04-10T09:16:54.186Z,3.83
2023-04-10T09:19:38.733Z,3.67
2023-04-10T09:22:05.254Z,3.30
2023-04-10T09:24:36.828Z,3.10
2023-04-10T09:27:03.195Z,3.17
2023-04-10T09:29:58.359Z,3.05
2023-04-10T09:32:43.551Z,3.30
2023-04-10T09:35:14.760Z,2.60
2023-04-10T09:37:43.142Z,3.17
2023-04-10T09:40:25.288Z,2.88
2023-04-10T09:42:52.414Z,3.10
2023-04-10T09:45:20.020Z,3.38
2023-04-10T09:48:06.616Z,3.25
2023-04-10T09:50:40.770Z,3.55
2023-04-10T09:53:08.340Z,2.67
2023-04-10T09:55:35.712Z,2.42
2023-04-10T09:58:05.983Z,2.50
2023-04-10T10:00:46.308Z,2.95
2023-04-10T10:03:17.884Z,3.00
2023-04-10T10:05:46.981Z,2.50
2023-04-10T10:08:15.047Z,2.88
2023-04-10T10:10:48.393Z,2.95
2023-04-10T10:13:27.589Z,2.65
2023-04-10T10:16:16.549Z,2.85
2023-04-10T10:19:06.061Z,3.03
2023-04-10T10:21:34.081Z,2.70
2023-04-10T10:24:02.131Z,2.50
2023-04-10T10:26:29.729Z,2.65
2023-04-10T10:28:57.615Z,2.83
2023-04-10T10:31:25.457Z,3.40
2023-04-10T10:33:52.414Z,2.25
2023-04-10T10:36:19.610Z,2.38
2023-04-10T10:39:10.922Z,1.85
2023-04-10T10:41:43.151Z,1.88
2023-04-10T10:44:22.790Z,1.92
2023-04-10T10:46:58.117Z,2.17
2023-04-10T10:50:04.263Z,2.70
2023-04-10T10:52:42.384Z,1.88
2023-04-10T10:55:22.070Z,1.80
2023-04-10T10:57:52.909Z,2.13
2023-04-10T11:00:20.553Z,2.00
2023-04-10T11:03:12.794Z,2.20
2023-04-10T11:05:47.819Z,2.15
2023-04-10T11:08:13.814Z,2.45
2023-04-10T11:11:08.433Z,2.20
2023-04-10T11:13:37.123Z,2.08
2023-04-10T11:16:05.154Z,2.30
2023-04-10T11:18:59.250Z,2.13
2023-04-10T11:21:32.333Z,1.95
2023-04-10T11:23:58.648Z,2.50
2023-04-10T11:26:40.507Z,1.92
2023-04-10T11:29:15.392Z,2.00
2023-04-10T11:31:43.408Z,2.08
2023-04-10T11:34:12.587Z,2.50
2023-04-10T11:36:40.850Z,2.25
2023-04-10T11:39:19.264Z,1.90
2023-04-10T11:41:46.253Z,2.03
2023-04-10T11:44:14.226Z,2.20
2023-04-10T11:46:47.541Z,1.92
2023-04-10T11:49:22.485Z,1.85
2023-04-10T11:51:50.845Z,1.90
2023-04-10T11:54:18.922Z,2.17
2023-04-10T11:56:56.443Z,2.20
2023-04-10T11:59:23.184Z,1.90
2023-04-10T12:01:53.423Z,2.40
2023-04-10T12:04:21.929Z,2.63
2023-04-10T12:06:55.197Z,1.95
2023-04-10T12:09:21.633Z,2.20
2023-04-10T12:11:53.151Z,2.20
2023-04-10T12:14:23.348Z,1.73
2023-04-10T12:16:50.917Z,1.90
2023-04-10T12:19:17.430Z,2.08
2023-04-10T12:21:45.381Z,2.22
2023-04-10T12:24:12.272Z,1.70
2023-04-10T12:26:38.353Z,2.20
2023-04-10T12:29:06.492Z,2.10
2023-04-10T12:31:34.306Z,1.75
2023-04-10T12:34:01.542Z,2.38
2023-04-10T12:36:29.520Z,2.28
2023-04-10T12:39:00.012Z,1.98
2023-04-10T12:41:28.992Z,2.38
2023-04-10T12:44:13.042Z,1.73
2023-04-10T12:46:40.874Z,1.80
2023-04-10T12:49:17.650Z,2.00
2023-04-10T12:51:50.284Z,1.90
2023-04-10T12:54:32.579Z,1.70
2023-04-10T12:56:59.413Z,1.92
2023-04-10T12:59:26.079Z,1.67
2023-04-10T13:01:52.813Z,1.85
2023-04-10T13:04:19.264Z,1.80
2023-04-10T13:06:46.132Z,1.75
2023-04-10T13:09:13.152Z,1.80
2023-04-10T13:11:40.026Z,1.35
2023-04-10T13:14:06.166Z,1.85
2023-04-10T13:16:32.182Z,1.63
2023-04-10T13:18:58.246Z,1.90
2023-04-10T13:21:26.303Z,1.90
2023-04-10T13:23:52.289Z,2.28
2023-04-10T13:26:18.230Z,1.77
2023-04-10T13:28:44.113Z,1.95
2023-04-10T13:31:10.263Z,2.10
2023-04-10T13:33:36.297Z,2.10
2023-04-10T13:36:02.418Z,2.10
2023-04-10T13:38:28.423Z,1.92
2023-04-10T13:40:54.433Z,1.90
2023-04-10T13:43:20.315Z,2.03
2023-04-10T13:45:46.329Z,2.20
2023-04-10T13:48:12.444Z,1.90
2023-04-10T13:50:38.409Z,2.42
2023-04-10T13:53:04.386Z,1.80
2023-04-10T13:55:30.248Z,1.95
2023-04-10T13:57:56.297Z,2.03
2023-04-10T14:00:22.570Z,1.85
2023-04-10T14:02:48.623Z,2.75
2023-04-10T14:05:14.755Z,2.20
2023-04-10T14:07:40.667Z,2.40
2023-04-10T14:10:07.448Z,2.67
2023-04-10T14:12:34.703Z,2.05
2023-04-10T14:15:01.426Z,2.20
2023-04-10T14:17:27.528Z,2.17
2023-04-10T14:19:53.529Z,1.90
2023-04-10T14:22:20.446Z,1.88
2023-04-10T14:24:46.425Z,2.30
2023-04-10T14:27:13.482Z,2.63
2023-04-10T14:29:47.428Z,2.10
2023-04-10T14:43:52.297Z,2.10
2023-04-10T14:46:18.589Z,2.28
2023-04-10T14:48:44.536Z,1.95
2023-04-10T14:51:12.256Z,2.20
2023-04-10T14:53:39.119Z,2.50
2023-04-10T14:56:12.921Z,1.80
2023-04-10T14:58:39.088Z,2.00
2023-04-10T15:01:12.600Z,2.20
2023-04-10T15:03:39.186Z,2.40
2023-04-10T15:06:06.241Z,2.47
2023-04-10T15:08:32.173Z,2.40
2023-04-10T15:10:58.234Z,2.22
2023-04-10T15:13:24.319Z,2.92
2023-04-10T15:15:50.278Z,2.00
2023-04-10T15:18:16.391Z,2.10
2023-04-10T15:20:42.800Z,1.90
2023-04-10T15:23:10.037Z,2.25
2023-04-10T15:25:36.140Z,1.95
2023-04-10T15:28:02.346Z,1.98
2023-04-10T15:30:28.444Z,2.67
2023-04-10T15:32:54.512Z,1.90
2023-04-10T15:35:20.659Z,2.20
2023-04-10T15:37:46.867Z,1.98
2023-04-10T15:40:12.866Z,2.15
2023-04-10T15:42:38.809Z,2.42
2023-04-10T15:45:05.205Z,2.10
2023-04-10T15:47:31.268Z,2.22
2023-04-10T15:49:57.526Z,2.35
2023-04-10T15:52:23.660Z,2.20
2023-04-10T15:54:50.754Z,2.22
2023-04-10T15:57:16.949Z,2.17
2023-04-10T15:59:43.133Z,2.20
2023-04-10T16:02:09.331Z,2.53
2023-04-10T16:04:36.077Z,2.90
2023-04-10T16:07:02.258Z,2.20
2023-04-10T16:09:28.324Z,2.60
2023-04-10T16:11:55.430Z,2.22
2023-04-10T16:14:21.842Z,2.30
2023-04-10T16:16:47.808Z,2.83
2023-04-10T16:19:13.793Z,2.05
2023-04-10T16:21:39.861Z,2.20
2023-04-10T16:24:06.076Z,1.88
2023-04-10T16:26:32.115Z,1.98
2023-04-10T16:28:58.190Z,1.85
2023-04-10T16:31:24.401Z,2.60
2023-04-10T16:33:50.804Z,2.20
2023-04-10T16:36:16.858Z,2.10
2023-04-10T16:38:43.946Z,2.30
2023-04-10T16:41:11.837Z,2.53
2023-04-10T16:43:37.878Z,2.28
2023-04-10T16:46:04.555Z,2.05
2023-04-10T16:48:30.736Z,2.08
2023-04-10T16:51:04.107Z,2.97
2023-04-10T16:53:30.227Z,2.38
2023-04-10T16:56:01.928Z,2.42
2023-04-10T16:58:29.832Z,2.20
2023-04-10T17:00:56.117Z,2.13
2023-04-10T17:03:22.439Z,2.30
2023-04-10T17:05:48.398Z,2.30
2023-04-10T17:08:14.380Z,2.50
2023-04-10T17:10:40.350Z,2.33
2023-04-10T17:13:06.313Z,2.00
2023-04-10T17:15:34.257Z,2.00
2023-04-10T17:18:00.253Z,1.92
2023-04-10T17:20:27.703Z,1.60
2023-04-10T17:22:53.865Z,1.67
2023-04-10T17:25:20.231Z,2.00
2023-04-10T17:27:46.343Z,1.92
2023-04-10T17:30:12.947Z,1.95
2023-04-10T17:32:41.022Z,1.70
2023-04-10T17:35:07.256Z,1.90
2023-04-10T17:37:33.185Z,1.92
2023-04-10T17:39:59.182Z,2.65
2023-04-10T17:42:26.570Z,1.90
2023-04-10T17:44:52.473Z,2.10
2023-04-10T17:47:18.472Z,1.80
2023-04-10T17:49:44.468Z,1.98
2023-04-10T17:52:10.577Z,2.42
2023-04-10T17:54:36.575Z,2.28
2023-04-10T17:57:02.651Z,2.03
2023-04-10T17:59:31.592Z,2.03
2023-04-10T18:01:57.764Z,2.40
2023-04-10T18:04:23.929Z,2.70
2023-04-10T18:06:49.995Z,1.90
2023-04-10T18:09:16.342Z,1.63
2023-04-10T18:11:42.505Z,1.30
2023-04-10T18:14:09.311Z,1.95
2023-04-10T18:16:35.428Z,1.90
2023-04-10T18:19:01.623Z,2.17
2023-04-10T18:21:27.706Z,1.73
2023-04-10T18:23:54.138Z,2.28
2023-04-10T18:26:21.966Z,2.38
2023-04-10T18:28:48.053Z,1.67
2023-04-10T18:31:15.407Z,2.42
2023-04-10T18:33:43.315Z,2.20
2023-04-10T18:36:10.269Z,2.20
2023-04-10T18:38:37.547Z,1.90
2023-04-10T18:41:03.932Z,2.05
2023-04-10T18:43:30.188Z,2.10
2023-04-10T18:46:00.971Z,2.38
2023-04-10T18:48:26.835Z,2.55
2023-04-10T18:50:52.902Z,2.28
2023-04-10T18:53:19.698Z,2.45
2023-04-10T18:55:52.261Z,2.58
2023-04-10T18:58:19.603Z,2.53
2023-04-10T19:00:46.007Z,2.90
2023-04-10T19:03:12.668Z,2.22
2023-04-10T19:05:39.117Z,2.75
2023-04-10T19:08:05.440Z,2.30
2023-04-10T19:10:34.125Z,2.55
2023-04-10T19:13:00.024Z,2.20
2023-04-10T19:15:27.033Z,2.22
2023-04-10T19:17:53.727Z,2.45
2023-04-10T19:20:50.375Z,2.08
2023-04-10T19:23:06.542Z,2.28
2023-04-10T19:25:32.678Z,2.28
2023-04-10T19:27:58.683Z,2.50
2023-04-10T19:30:25.428Z,2.53
2023-04-10T19:32:51.904Z,2.65
2023-04-10T19:35:17.857Z,2.65
2023-04-10T19:37:43.783Z,3.08
2023-04-10T19:40:10.210Z,2.47
2023-04-10T19:42:36.541Z,2.83
2023-04-10T19:45:02.765Z,2.35
2023-04-10T19:47:29.050Z,2.92
2023-04-10T19:49:55.024Z,2.40
2023-04-10T19:52:21.063Z,2.92
2023-04-10T19:54:47.436Z,4.15
2023-04-10T19:57:13.502Z,3.10
2023-04-10T19:59:39.458Z,2.70
2023-04-10T20:02:05.924Z,2.95
2023-04-10T20:04:32.048Z,3.40
2023-04-10T20:06:58.246Z,3.15
2023-04-10T20:09:24.495Z,3.38
2023-04-10T20:11:50.699Z,3.55
2023-04-10T20:14:16.736Z,3.50
2023-04-10T20:16:42.678Z,3.15
2023-04-10T20:19:08.699Z,3.55
2023-04-10T20:21:34.732Z,3.90
2023-04-10T20:24:00.650Z,3.70
2023-04-10T20:26:26.627Z,3.88
2023-04-10T20:28:53.238Z,4.13
2023-04-10T20:31:19.491Z,3.67
2023-04-10T20:33:45.543Z,3.00
2023-04-10T20:36:12.750Z,3.42
2023-04-10T20:38:39.053Z,3.83
2023-04-10T20:41:05.390Z,3.33
2023-04-10T20:43:31.847Z,3.80
2023-04-10T20:46:10.028Z,3.63
2023-04-10T20:48:37.351Z,4.03
2023-04-10T20:51:04.524Z,4.05
2023-04-10T20:53:30.666Z,3.92
2023-04-10T20:55:56.579Z,3.50
2023-04-10T20:58:22.605Z,4.00
2023-04-10T21:00:52.555Z,4.07
2023-04-10T21:03:19.490Z,4.78
2023-04-10T21:05:45.851Z,2.72
2023-04-10T21:08:14.022Z,1.95
2023-04-10T21:10:43.556Z,1.30
2023-04-10T21:13:13.818Z,1.48
2023-04-10T21:15:42.657Z,1.30
2023-04-10T21:18:09.145Z,1.10
2023-04-10T21:20:35.363Z,1.58
2023-04-10T21:23:01.823Z,1.10
2023-04-10T21:25:31.866Z,1.52
2023-04-10T21:27:57.860Z,1.08
2023-04-10T21:30:23.756Z,1.00
2023-04-10T21:32:49.795Z,1.00
2023-04-10T21:35:15.982Z,1.05
2023-04-10T21:37:41.894Z,1.20
2023-04-10T21:40:08.371Z,0.80
2023-04-10T21:42:36.972Z,1.00
2023-04-10T21:45:04.120Z,1.10
2023-04-10T21:47:30.093Z,0.80
2023-04-10T21:49:56.095Z,0.90
2023-04-10T21:52:21.993Z,1.13
2023-04-10T21:54:48.781Z,1.08
2023-04-10T21:57:14.773Z,1.08
2023-04-10T21:59:40.715Z,1.10
2023-04-10T22:02:06.849Z,0.68
2023-04-10T22:04:34.563Z,0.73
2023-04-10T22:07:00.545Z,1.10
2023-04-10T22:09:26.495Z,0.93
2023-04-10T22:11:52.396Z,1.00
2023-04-10T22:14:20.778Z,1.05
2023-04-10T22:16:47.350Z,1.08
2023-04-10T22:19:13.444Z,0.80
2023-04-10T22:21:39.456Z,0.95
2023-04-10T22:24:05.690Z,0.60
2023-04-10T22:26:33.480Z,0.80
2023-04-10T22:28:59.631Z,0.88
2023-04-10T22:31:25.614Z,0.80
2023-04-10T22:33:51.615Z,1.02
2023-04-10T22:36:17.524Z,0.90
2023-04-10T22:38:43.417Z,1.23
2023-04-10T22:41:10.316Z,1.63
2023-04-10T22:43:36.279Z,1.33
2023-04-10T22:46:02.260Z,1.42
2023-04-10T22:48:28.379Z,1.35
2023-04-10T22:50:54.303Z,1.15
2023-04-10T22:53:20.212Z,1.30
2023-04-10T22:55:46.192Z,1.80
2023-04-10T22:58:12.264Z,1.58
2023-04-10T23:00:38.214Z,1.42
2023-04-10T23:03:04.370Z,1.13
2023-04-10T23:05:34.111Z,1.33
2023-04-10T23:08:00.085Z,1.27
2023-04-10T23:10:25.991Z,1.00
2023-04-10T23:12:51.962Z,1.33
2023-04-10T23:15:18.118Z,1.20
2023-04-10T23:17:44.055Z,1.00
2023-04-10T23:20:10.548Z,1.77
2023-04-10T23:22:36.448Z,1.30
2023-04-10T23:25:02.385Z,1.30
2023-04-10T23:27:28.256Z,1.25
2023-04-10T23:29:54.167Z,1.25
2023-04-10T23:32:20.121Z,1.45
2023-04-10T23:34:46.058Z,1.45
2023-04-10T23:37:12.020Z,1.95
2023-04-10T23:39:39.025Z,2.03
2023-04-10T23:42:05.148Z,1.90
2023-04-10T23:44:31.048Z,1.95
2023-04-10T23:46:57.047Z,2.00
2023-04-10T23:49:23.155Z,2.13
2023-04-10T23:51:49.138Z,3.22
2023-04-10T23:54:15.275Z,1.80
2023-04-10T23:56:41.594Z,1.60
2023-04-10T23:59:07.543Z,1.80
